createdAt,value
2022-12-23T00:01:19.755Z,2.04
2022-12-23T00:03:46.368Z,2.02
2022-12-23T00:06:16.729Z,1.77
2022-12-23T00:08:44.400Z,1.72
2022-12-23T00:11:15.819Z,1.78
2022-12-23T00:13:42.616Z,1.93
2022-12-23T00:16:12.602Z,1.80
2022-12-23T00:18:40.494Z,1.82
2022-12-23T00:21:13.991Z,2.11
2022-12-23T00:23:43.040Z,2.17
2022-12-23T00:26:22.125Z,2.17
2022-12-23T00:28:49.040Z,2.36
2022-12-23T00:31:15.856Z,2.27
2022-12-23T00:33:44.790Z,2.15
2022-12-23T00:36:22.396Z,2.14
2022-12-23T00:38:49.056Z,2.15
2022-12-23T00:41:18.426Z,2.15
2022-12-23T00:43:44.863Z,2.20
2022-12-23T00:46:11.349Z,2.47
2022-12-23T00:48:37.793Z,2.33
2022-12-23T00:51:04.408Z,2.29
2022-12-23T00:53:30.912Z,2.23
2022-12-23T00:55:57.390Z,2.01
2022-12-23T00:58:24.454Z,1.94
2022-12-23T01:00:53.293Z,1.81
2022-12-23T01:03:19.787Z,1.70
2022-12-23T01:05:46.326Z,1.57
2022-12-23T01:08:12.771Z,1.68
2022-12-23T01:10:40.453Z,1.86
2022-12-23T01:13:07.066Z,2.44
2022-12-23T01:15:33.703Z,1.88
2022-12-23T01:18:00.235Z,2.76
2022-12-23T01:20:26.728Z,2.09
2022-12-23T01:22:53.184Z,2.99
2022-12-23T01:25:19.754Z,3.11
2022-12-23T01:27:46.197Z,2.31
2022-12-23T01:30:12.742Z,2.13
2022-12-23T01:32:39.297Z,2.09
2022-12-23T01:35:05.880Z,1.99
2022-12-23T01:37:32.321Z,1.97
2022-12-23T01:39:58.793Z,1.85
2022-12-23T01:42:25.831Z,1.93
2022-12-23T01:44:59.116Z,1.60
2022-12-23T01:47:44.834Z,1.69
2022-12-23T01:50:19.263Z,1.51
2022-12-23T01:52:49.738Z,1.55
2022-12-23T01:55:23.184Z,1.69
2022-12-23T01:57:51.392Z,1.64
2022-12-23T02:00:17.998Z,1.72
2022-12-23T02:02:46.508Z,1.87
2022-12-23T02:05:13.866Z,1.70
2022-12-23T02:07:40.609Z,1.65
2022-12-23T02:10:08.129Z,1.72
2022-12-23T02:12:49.840Z,2.06
2022-12-23T02:15:31.379Z,2.05
2022-12-23T02:18:33.100Z,2.41
2022-12-23T02:21:15.616Z,2.18
2022-12-23T02:24:01.645Z,2.24
2022-12-23T02:27:02.169Z,1.99
2022-12-23T02:29:28.584Z,1.80
2022-12-23T02:32:15.790Z,1.79
2022-12-23T02:34:58.318Z,1.88
2022-12-23T02:37:43.541Z,1.83
2022-12-23T02:40:32.649Z,1.91
2022-12-23T02:43:19.787Z,1.94
2022-12-23T02:46:04.450Z,1.98
2022-12-23T02:48:57.009Z,2.20
2022-12-23T02:51:30.914Z,2.15
2022-12-23T02:54:03.725Z,2.02
2022-12-23T02:56:35.189Z,2.44
2022-12-23T02:59:09.125Z,2.26
2022-12-23T03:01:37.213Z,1.96
2022-12-23T03:04:06.579Z,1.94
2022-12-23T03:06:41.134Z,1.78
2022-12-23T03:09:08.058Z,2.07
2022-12-23T03:12:01.467Z,2.05
2022-12-23T03:14:59.637Z,1.99
2022-12-23T03:17:32.247Z,1.71
2022-12-23T03:20:26.916Z,1.77
2022-12-23T03:23:08.151Z,1.81
2022-12-23T03:25:52.131Z,1.58
2022-12-23T03:28:28.619Z,1.44
2022-12-23T03:30:59.516Z,1.56
2022-12-23T03:33:35.350Z,1.69
2022-12-23T03:36:31.515Z,1.49
2022-12-23T03:39:02.280Z,1.52
2022-12-23T03:41:35.941Z,1.77
2022-12-23T03:44:11.821Z,1.65
2022-12-23T03:46:58.944Z,1.77
2022-12-23T03:49:35.562Z,1.92
2022-12-23T03:52:21.157Z,1.93
2022-12-23T03:54:54.367Z,1.78
2022-12-23T03:57:29.248Z,1.83
2022-12-23T03:59:56.167Z,2.09
2022-12-23T04:02:37.773Z,1.98
2022-12-23T04:05:19.626Z,1.70
2022-12-23T04:07:49.237Z,1.87
2022-12-23T04:10:16.126Z,1.68
2022-12-23T04:13:02.642Z,1.45
2022-12-23T04:15:40.548Z,1.49
2022-12-23T04:18:22.742Z,1.47
2022-12-23T04:21:08.871Z,1.41
2022-12-23T04:23:35.437Z,1.46
2022-12-23T04:26:01.915Z,1.37
2022-12-23T04:28:28.393Z,1.47
2022-12-23T04:30:54.974Z,1.41
2022-12-23T04:33:21.488Z,1.18
2022-12-23T04:35:47.967Z,1.13
2022-12-23T04:38:14.437Z,1.38
2022-12-23T04:40:40.923Z,1.48
2022-12-23T04:43:07.400Z,1.27
2022-12-23T04:45:33.845Z,1.27
2022-12-23T04:48:00.323Z,1.37
2022-12-23T04:50:26.778Z,1.54
2022-12-23T04:52:53.289Z,1.59
2022-12-23T04:55:19.762Z,1.71
2022-12-23T04:57:46.205Z,1.50
2022-12-23T05:00:13.253Z,1.33
2022-12-23T05:02:39.790Z,1.38
2022-12-23T05:05:06.502Z,1.48
2022-12-23T05:07:33.029Z,1.32
2022-12-23T05:09:59.486Z,1.25
2022-12-23T05:12:26.010Z,1.16
2022-12-23T05:14:52.464Z,1.02
2022-12-23T05:17:18.934Z,0.99
2022-12-23T05:19:45.445Z,1.00
2022-12-23T05:22:11.913Z,0.93
2022-12-23T05:24:38.421Z,0.79
2022-12-23T05:27:05.403Z,0.87
2022-12-23T05:29:31.866Z,0.92
2022-12-23T05:31:58.377Z,0.94
2022-12-23T05:34:24.822Z,0.97
2022-12-23T05:36:51.273Z,0.97
2022-12-23T05:39:17.754Z,0.85
2022-12-23T05:41:44.223Z,0.90
2022-12-23T05:44:10.782Z,1.40
2022-12-23T05:46:37.352Z,1.15
2022-12-23T05:49:03.909Z,1.07
2022-12-23T05:51:30.392Z,1.11
2022-12-23T05:53:57.124Z,1.20
2022-12-23T05:56:23.672Z,1.08
2022-12-23T05:58:50.151Z,1.24
2022-12-23T06:01:16.731Z,1.84
2022-12-23T06:03:43.370Z,1.85
2022-12-23T06:06:09.875Z,1.74
2022-12-23T06:08:36.451Z,1.81
2022-12-23T06:11:05.905Z,2.15
2022-12-23T06:13:32.460Z,1.88
2022-12-23T06:16:01.023Z,2.02
2022-12-23T06:18:27.487Z,1.99
2022-12-23T06:20:53.929Z,2.27
2022-12-23T06:23:20.417Z,1.93
2022-12-23T06:25:46.882Z,2.21
2022-12-23T06:28:13.426Z,1.95
2022-12-23T06:30:40.061Z,2.07
2022-12-23T06:33:06.599Z,1.87
2022-12-23T06:35:33.095Z,1.43
2022-12-23T06:37:59.567Z,1.76
2022-12-23T06:40:26.101Z,1.49
2022-12-23T06:42:52.662Z,1.83
2022-12-23T06:45:19.132Z,1.89
2022-12-23T06:47:45.569Z,1.75
2022-12-23T06:50:12.043Z,2.59
2022-12-23T06:52:38.542Z,2.55
2022-12-23T06:55:05.513Z,2.68
2022-12-23T06:57:32.004Z,2.80
2022-12-23T06:59:58.439Z,2.87
2022-12-23T07:02:24.954Z,2.33
2022-12-23T07:04:51.539Z,2.19
2022-12-23T07:07:18.007Z,2.59
2022-12-23T07:09:44.520Z,1.98
2022-12-23T07:12:10.977Z,1.71
2022-12-23T07:14:37.513Z,1.65
2022-12-23T07:17:04.144Z,1.92
2022-12-23T07:19:30.711Z,1.74
2022-12-23T07:21:57.219Z,1.37
2022-12-23T07:24:23.659Z,1.29
2022-12-23T07:26:52.017Z,1.38
2022-12-23T07:29:18.462Z,1.68
2022-12-23T07:31:44.976Z,2.48
2022-12-23T07:34:11.505Z,2.06
2022-12-23T07:36:38.017Z,1.97
2022-12-23T07:39:04.662Z,1.86
2022-12-23T07:41:31.187Z,2.26
2022-12-23T07:43:57.711Z,2.72
2022-12-23T07:46:24.197Z,1.96
2022-12-23T07:48:50.710Z,1.42
2022-12-23T07:51:17.193Z,0.95
2022-12-23T07:53:43.745Z,1.26
2022-12-23T07:56:10.216Z,1.17
2022-12-23T07:58:36.691Z,1.11
2022-12-23T08:01:06.048Z,1.47
2022-12-23T08:03:32.686Z,1.41
2022-12-23T08:06:08.464Z,1.17
2022-12-23T08:08:35.788Z,1.51
2022-12-23T08:11:04.970Z,2.16
2022-12-23T08:13:34.432Z,1.78
2022-12-23T08:16:02.626Z,2.27
2022-12-23T08:18:35.368Z,2.36
2022-12-23T08:21:04.947Z,3.38
2022-12-23T08:23:32.543Z,2.87
2022-12-23T08:26:09.942Z,2.31
2022-12-23T08:28:38.102Z,2.65
2022-12-23T08:31:08.501Z,1.98
2022-12-23T08:33:36.784Z,1.50
2022-12-23T08:36:04.969Z,1.58
2022-12-23T08:38:32.208Z,1.68
2022-12-23T08:40:59.337Z,1.83
2022-12-23T08:43:31.816Z,1.89
2022-12-23T08:46:01.937Z,1.97
2022-12-23T08:48:28.472Z,2.53
2022-12-23T08:50:54.933Z,1.97
2022-12-23T08:53:21.402Z,1.92
2022-12-23T08:55:48.499Z,2.01
2022-12-23T08:58:15.731Z,2.27
2022-12-23T09:00:42.290Z,1.83
2022-12-23T09:03:08.957Z,2.37
2022-12-23T09:05:40.848Z,2.67
2022-12-23T09:08:08.072Z,2.00
2022-12-23T09:10:41.095Z,2.88
2022-12-23T09:13:07.620Z,2.51
2022-12-23T09:15:34.111Z,2.60
2022-12-23T09:18:00.688Z,1.46
2022-12-23T09:20:27.163Z,1.43
2022-12-23T09:22:53.635Z,1.86
2022-12-23T09:25:20.110Z,10.98
2022-12-23T09:27:46.625Z,1.70
2022-12-23T09:30:13.599Z,6.42
2022-12-23T09:32:40.080Z,1.54
2022-12-23T09:35:06.923Z,1.32
2022-12-23T09:37:33.410Z,1.32
2022-12-23T09:39:59.880Z,1.18
2022-12-23T09:42:51.069Z,1.55
2022-12-23T09:45:40.462Z,1.75
2022-12-23T09:48:14.591Z,1.44
2022-12-23T09:50:43.302Z,1.34
2022-12-23T09:53:21.392Z,1.38
2022-12-23T09:56:01.248Z,2.39
2022-12-23T09:58:38.367Z,1.76
2022-12-23T10:01:15.948Z,1.86
2022-12-23T10:04:21.939Z,2.70
2022-12-23T10:07:03.619Z,2.12
2022-12-23T10:09:38.599Z,2.15
2022-12-23T10:12:27.235Z,2.46
2022-12-23T10:14:59.988Z,2.65
2022-12-23T10:17:34.162Z,2.34
2022-12-23T10:20:04.397Z,2.98
2022-12-23T10:22:42.943Z,3.27
2022-12-23T10:25:28.403Z,2.99
2022-12-23T10:27:54.920Z,2.24
2022-12-23T10:33:31.504Z,2.48
2022-12-23T10:36:17.185Z,2.69
2022-12-23T10:39:05.525Z,2.87
2022-12-23T10:41:58.725Z,3.01
2022-12-23T10:44:52.089Z,2.90
2022-12-23T10:47:35.663Z,2.81
2022-12-23T10:50:14.560Z,2.34
2022-12-23T10:52:45.297Z,1.79
2022-12-23T10:55:28.488Z,2.06
2022-12-23T10:58:07.350Z,2.23
2022-12-23T11:00:39.794Z,2.73
2022-12-23T11:03:27.120Z,2.96
2022-12-23T11:05:54.624Z,2.91
2022-12-23T11:08:23.740Z,2.89
2022-12-23T11:10:50.549Z,3.19
2022-12-23T11:13:32.980Z,2.65
2022-12-23T11:16:17.840Z,2.05
2022-12-23T11:18:59.492Z,2.45
2022-12-23T11:21:27.378Z,2.41
2022-12-23T11:24:19.354Z,2.54
2022-12-23T11:26:50.289Z,2.78
2022-12-23T11:29:33.004Z,2.61
2022-12-23T11:32:01.517Z,2.72
2022-12-23T11:34:37.597Z,2.77
2022-12-23T11:37:07.409Z,3.69
2022-12-23T11:39:37.652Z,3.70
2022-12-23T11:42:17.196Z,3.57
2022-12-23T11:44:51.571Z,3.53
2022-12-23T11:47:36.406Z,3.50
2022-12-23T11:50:31.425Z,3.58
2022-12-23T11:53:09.654Z,4.13
2022-12-23T11:55:44.683Z,4.37
2022-12-23T11:58:19.590Z,4.30
2022-12-23T12:00:55.751Z,4.34
2022-12-23T12:03:27.493Z,4.23
2022-12-23T12:06:06.673Z,4.32
2022-12-23T12:08:37.268Z,4.58
2022-12-23T12:11:26.330Z,5.00
2022-12-23T12:14:04.505Z,4.86
2022-12-23T12:16:31.043Z,4.73
2022-12-23T12:19:05.115Z,4.68
2022-12-23T12:21:37.874Z,4.34
2022-12-23T12:24:22.569Z,4.46
2022-12-23T12:26:54.125Z,4.27
2022-12-23T12:29:27.237Z,4.15
2022-12-23T12:31:57.715Z,4.37
2022-12-23T12:35:00.327Z,4.31
2022-12-23T12:37:38.062Z,4.10
2022-12-23T12:40:32.515Z,4.19
2022-12-23T12:43:26.871Z,4.41
2022-12-23T12:46:02.471Z,4.75
2022-12-23T12:48:42.026Z,5.24
2022-12-23T12:51:39.155Z,5.52
2022-12-23T12:54:27.361Z,5.03
2022-12-23T12:56:58.685Z,4.39
2022-12-23T12:59:29.396Z,3.46
2022-12-23T13:02:04.793Z,3.77
2022-12-23T13:04:53.117Z,4.13
2022-12-23T13:07:32.527Z,3.74
2022-12-23T13:10:19.607Z,3.16
2022-12-23T13:13:21.061Z,3.28
2022-12-23T13:16:26.403Z,2.86
2022-12-23T13:19:03.188Z,2.65
2022-12-23T13:21:45.927Z,2.73
2022-12-23T13:24:36.764Z,2.50
2022-12-23T13:27:34.631Z,3.30
2022-12-23T13:30:05.654Z,2.38
2022-12-23T13:32:50.042Z,2.43
2022-12-23T13:35:31.668Z,3.06
2022-12-23T13:38:21.075Z,2.78
2022-12-23T13:41:10.359Z,2.88
2022-12-23T13:43:56.163Z,3.20
2022-12-23T13:46:31.126Z,4.12
2022-12-23T13:49:04.672Z,3.64
2022-12-23T13:51:45.400Z,3.25
2022-12-23T13:54:14.587Z,3.11
2022-12-23T13:57:11.509Z,3.20
2022-12-23T14:00:04.919Z,3.52
2022-12-23T14:02:35.289Z,4.06
2022-12-23T14:05:05.300Z,3.89
2022-12-23T14:07:33.929Z,3.82
2022-12-23T14:10:19.818Z,3.73
2022-12-23T14:12:47.693Z,3.75
2022-12-23T14:15:39.515Z,3.87
2022-12-23T14:18:48.256Z,4.02
2022-12-23T14:21:51.865Z,4.26
2022-12-23T14:24:43.985Z,4.10
2022-12-23T14:27:16.509Z,4.65
2022-12-23T14:30:09.912Z,4.17
2022-12-23T14:32:47.848Z,4.16
2022-12-23T14:35:38.529Z,4.32
2022-12-23T14:38:15.858Z,4.64
2022-12-23T14:40:42.276Z,3.94
2022-12-23T14:43:27.273Z,4.59
2022-12-23T14:45:54.999Z,3.63
2022-12-23T14:48:33.792Z,3.90
2022-12-23T14:51:03.197Z,3.64
2022-12-23T14:53:31.907Z,3.74
2022-12-23T14:56:20.276Z,4.01
2022-12-23T14:58:49.746Z,4.09
2022-12-23T15:01:28.579Z,3.76
2022-12-23T15:04:01.591Z,4.19
2022-12-23T15:06:42.619Z,4.36
2022-12-23T15:09:23.395Z,4.41
2022-12-23T15:11:51.368Z,4.26
2022-12-23T15:14:50.946Z,4.44
2022-12-23T15:17:35.210Z,4.08
2022-12-23T15:20:04.421Z,4.36
2022-12-23T15:22:32.652Z,4.38
2022-12-23T15:24:59.319Z,4.63
2022-12-23T15:27:30.522Z,4.77
2022-12-23T15:29:58.136Z,4.57
2022-12-23T15:32:27.131Z,4.40
2022-12-23T15:35:03.107Z,4.55
2022-12-23T15:37:31.871Z,4.39
2022-12-23T15:40:09.594Z,4.40
2022-12-23T15:42:39.022Z,4.43
2022-12-23T15:45:31.321Z,4.17
2022-12-23T15:47:57.811Z,4.28
2022-12-23T15:50:24.496Z,4.30
2022-12-23T15:52:56.632Z,3.98
2022-12-23T15:55:32.598Z,4.57
2022-12-23T15:58:00.863Z,4.81
2022-12-23T16:00:41.427Z,5.63
2022-12-23T16:03:37.377Z,4.95
2022-12-23T16:06:09.670Z,4.86
2022-12-23T16:08:37.428Z,5.13
2022-12-23T16:11:14.454Z,4.94
2022-12-23T16:13:58.042Z,4.66
2022-12-23T16:16:41.637Z,4.38
2022-12-23T16:19:40.970Z,5.10
2022-12-23T16:22:26.037Z,4.40
2022-12-23T16:25:04.267Z,4.50
2022-12-23T16:27:42.460Z,4.32
2022-12-23T16:30:23.890Z,4.42
2022-12-23T16:32:56.355Z,4.63
2022-12-23T16:35:41.223Z,4.83
2022-12-23T16:38:25.715Z,3.98
2022-12-23T16:40:54.616Z,4.60
2022-12-23T16:43:23.847Z,4.82
2022-12-23T16:45:58.032Z,4.84
2022-12-23T16:48:39.920Z,4.65
2022-12-23T16:51:18.626Z,4.88
2022-12-23T16:53:45.220Z,4.90
2022-12-23T16:56:14.299Z,4.76
2022-12-23T16:58:40.938Z,4.56
2022-12-23T17:01:14.547Z,4.57
2022-12-23T17:03:41.046Z,5.01
2022-12-23T17:06:13.313Z,5.00
2022-12-23T17:08:40.040Z,5.28
2022-12-23T17:11:18.106Z,4.72
2022-12-23T17:13:45.579Z,4.25
2022-12-23T17:16:15.326Z,4.50
2022-12-23T17:18:41.968Z,4.26
2022-12-23T17:21:20.621Z,4.62
2022-12-23T17:23:47.881Z,5.30
2022-12-23T17:26:14.925Z,4.98
2022-12-23T17:28:41.498Z,5.12
2022-12-23T17:31:14.241Z,4.99
2022-12-23T17:33:42.018Z,5.53
2022-12-23T17:36:11.613Z,6.03
2022-12-23T17:38:38.245Z,6.12
2022-12-23T17:41:04.892Z,5.26
2022-12-23T17:43:31.363Z,5.13
2022-12-23T17:45:57.920Z,5.00
2022-12-23T17:48:31.111Z,5.22
2022-12-23T17:50:58.272Z,5.06
2022-12-23T17:53:24.742Z,5.18
2022-12-23T17:55:51.211Z,5.88
2022-12-23T17:58:17.724Z,6.22
2022-12-23T18:00:44.293Z,5.68
2022-12-23T18:03:22.077Z,5.38
2022-12-23T18:05:48.556Z,4.82
2022-12-23T18:08:15.071Z,4.54
2022-12-23T18:10:41.794Z,4.20
2022-12-23T18:13:18.263Z,4.01
2022-12-23T18:15:45.734Z,3.72
2022-12-23T18:18:26.048Z,3.79
2022-12-23T18:20:57.166Z,4.19
2022-12-23T18:23:29.250Z,4.67
2022-12-23T18:25:56.586Z,4.92
2022-12-23T18:28:23.635Z,4.28
2022-12-23T18:30:54.624Z,4.16
2022-12-23T18:33:21.239Z,4.69
2022-12-23T18:35:49.751Z,4.18
2022-12-23T18:38:17.832Z,5.14
2022-12-23T18:40:45.049Z,5.14
2022-12-23T18:43:20.400Z,5.41
2022-12-23T18:45:52.437Z,5.41
2022-12-23T18:48:20.132Z,5.25
2022-12-23T18:50:46.709Z,6.18
2022-12-23T18:53:23.406Z,5.54
2022-12-23T18:55:50.715Z,7.61
2022-12-23T18:58:17.857Z,10.81
2022-12-23T19:00:45.713Z,6.27
2022-12-23T19:03:20.735Z,4.85
2022-12-23T19:05:47.779Z,4.64
2022-12-23T19:08:16.837Z,4.82
2022-12-23T19:10:48.755Z,5.32
2022-12-23T19:13:15.716Z,4.45
2022-12-23T19:15:43.202Z,3.83
2022-12-23T19:18:19.321Z,3.95
2022-12-23T19:20:47.650Z,4.13
2022-12-23T19:23:14.725Z,3.85
2022-12-23T19:25:49.220Z,5.36
2022-12-23T19:28:22.213Z,3.83
2022-12-23T19:30:49.272Z,4.62
2022-12-23T19:33:15.935Z,5.50
2022-12-23T19:35:43.563Z,3.84
2022-12-23T19:38:10.575Z,5.72
2022-12-23T19:40:37.072Z,3.36
2022-12-23T19:43:04.317Z,3.37
2022-12-23T19:45:30.997Z,3.71
2022-12-23T19:47:57.842Z,3.69
2022-12-23T19:50:24.602Z,4.31
2022-12-23T19:52:51.051Z,3.73
2022-12-23T19:55:17.923Z,4.44
2022-12-23T19:57:44.590Z,4.56
2022-12-23T20:00:11.549Z,4.11
2022-12-23T20:02:38.040Z,7.29
2022-12-23T20:05:04.919Z,7.26
2022-12-23T20:07:31.422Z,3.41
2022-12-23T20:10:00.260Z,4.41
2022-12-23T20:12:26.846Z,3.42
2022-12-23T20:14:53.692Z,3.40
2022-12-23T20:17:20.183Z,3.43
2022-12-23T20:19:46.753Z,2.62
2022-12-23T20:22:13.446Z,2.25
2022-12-23T20:24:39.913Z,2.90
2022-12-23T20:27:11.403Z,2.25
2022-12-23T20:29:39.092Z,2.41
2022-12-23T20:32:05.749Z,2.36
2022-12-23T20:34:38.587Z,9.45
2022-12-23T20:37:07.223Z,2.76
2022-12-23T20:39:34.490Z,3.01
2022-12-23T20:42:01.149Z,2.35
2022-12-23T20:44:37.091Z,2.22
2022-12-23T20:47:05.431Z,3.09
2022-12-23T20:49:32.995Z,3.22
2022-12-23T20:51:59.500Z,3.12
2022-12-23T20:54:32.147Z,3.73
2022-12-23T20:57:00.193Z,5.43
2022-12-23T20:59:26.732Z,13.45
2022-12-23T21:01:53.267Z,5.12
2022-12-23T21:04:19.837Z,3.34
2022-12-23T21:06:46.319Z,3.72
2022-12-23T21:09:14.862Z,4.63
2022-12-23T21:11:45.479Z,5.82
2022-12-23T21:14:13.120Z,4.02
2022-12-23T21:16:40.679Z,4.92
2022-12-23T21:19:12.852Z,3.82
2022-12-23T21:21:39.331Z,5.70
2022-12-23T21:24:06.507Z,6.28
2022-12-23T21:26:34.492Z,6.13
2022-12-23T21:29:04.039Z,8.42
2022-12-23T21:31:33.762Z,5.62
2022-12-23T21:34:01.150Z,3.95
2022-12-23T21:36:32.481Z,4.67
2022-12-23T21:38:59.899Z,4.07
2022-12-23T21:41:31.869Z,4.37
2022-12-23T21:43:59.909Z,5.07
2022-12-23T21:46:28.176Z,4.16
2022-12-23T21:48:59.456Z,4.08
2022-12-23T21:51:35.042Z,4.35
2022-12-23T21:54:05.349Z,5.03
2022-12-23T21:56:31.972Z,5.44
2022-12-23T21:59:00.868Z,6.07
2022-12-23T22:01:28.241Z,5.46
2022-12-23T22:03:56.518Z,4.67
2022-12-23T22:06:29.057Z,4.32
2022-12-23T22:08:56.972Z,3.68
2022-12-23T22:11:27.612Z,3.86
2022-12-23T22:13:56.497Z,4.12
2022-12-23T22:16:24.862Z,4.94
2022-12-23T22:18:52.380Z,3.98
2022-12-23T22:21:24.519Z,4.05
2022-12-23T22:23:53.308Z,4.46
2022-12-23T22:26:26.666Z,4.83
2022-12-23T22:28:55.889Z,5.02
2022-12-23T22:31:36.462Z,5.70
2022-12-23T22:34:04.390Z,5.83
2022-12-23T22:36:31.008Z,4.94
2022-12-23T22:39:00.045Z,5.74
2022-12-23T22:41:28.856Z,4.43
2022-12-23T22:43:56.306Z,4.56
2022-12-23T22:46:23.238Z,4.36
2022-12-23T22:48:50.468Z,3.97
2022-12-23T22:51:26.072Z,3.82
2022-12-23T22:53:53.414Z,4.65
2022-12-23T22:56:22.089Z,3.90
2022-12-23T22:58:49.888Z,4.00
2022-12-23T23:01:24.498Z,4.10
2022-12-23T23:03:53.128Z,4.41
2022-12-23T23:06:19.651Z,3.92
2022-12-23T23:08:46.114Z,4.29
2022-12-23T23:11:12.588Z,4.90
2022-12-23T23:13:39.030Z,4.93
2022-12-23T23:16:05.860Z,4.45
2022-12-23T23:18:32.310Z,4.86
2022-12-23T23:20:58.760Z,5.37
2022-12-23T23:23:25.226Z,4.23
2022-12-23T23:25:51.928Z,3.93
2022-12-23T23:28:18.521Z,3.87
2022-12-23T23:30:45.036Z,4.04
2022-12-23T23:33:11.866Z,3.78
2022-12-23T23:35:38.432Z,3.80
2022-12-23T23:38:05.343Z,3.56
2022-12-23T23:40:31.810Z,3.69
2022-12-23T23:42:58.270Z,3.51
2022-12-23T23:45:24.862Z,3.48
2022-12-23T23:47:51.364Z,3.35
2022-12-23T23:50:17.818Z,2.92
2022-12-23T23:52:44.352Z,3.09
2022-12-23T23:55:11.853Z,3.16
2022-12-23T23:57:38.396Z,3.50
